createdAt,value
2022-08-02T00:00:18.932Z,19.44
2022-08-02T00:02:50.792Z,19.50
2022-08-02T00:05:22.305Z,19.54
2022-08-02T00:07:54.182Z,19.54
2022-08-02T00:10:25.748Z,19.56
2022-08-02T00:12:57.614Z,19.55
2022-08-02T00:15:29.138Z,19.56
2022-08-02T00:18:01.005Z,19.60
2022-08-02T00:20:32.627Z,19.60
2022-08-02T00:23:04.354Z,19.57
2022-08-02T00:25:35.911Z,19.56
2022-08-02T00:28:28.351Z,19.59
2022-08-02T00:31:00.293Z,19.60
2022-08-02T00:34:26.389Z,19.53
2022-08-02T00:36:23.722Z,19.51
2022-08-02T00:38:55.239Z,19.48
2022-08-02T00:41:27.063Z,19.53
2022-08-02T00:43:58.595Z,19.51
2022-08-02T00:46:30.495Z,19.49
2022-08-02T00:49:02.192Z,19.48
2022-08-02T00:51:34.145Z,19.49
2022-08-02T00:54:05.672Z,19.51
2022-08-02T00:56:37.554Z,19.48
2022-08-02T00:59:09.062Z,19.49
2022-08-02T01:01:55.909Z,19.48
2022-08-02T01:04:30.077Z,19.47
2022-08-02T01:07:13.406Z,19.46
2022-08-02T01:09:45.402Z,19.49
2022-08-02T01:12:17.897Z,19.42
2022-08-02T01:14:49.500Z,19.39
2022-08-02T01:17:21.480Z,19.41
2022-08-02T01:19:52.995Z,19.39
2022-08-02T01:22:58.072Z,19.39
2022-08-02T01:25:16.537Z,19.32
2022-08-02T01:27:48.598Z,19.32
2022-08-02T01:30:20.128Z,19.29
2022-08-02T01:32:52.018Z,19.27
2022-08-02T01:35:23.589Z,19.21
2022-08-02T01:37:55.408Z,19.25
2022-08-02T01:40:26.928Z,19.23
2022-08-02T01:42:59.125Z,19.23
2022-08-02T01:45:30.702Z,19.22
2022-08-02T01:48:02.609Z,19.20
2022-08-02T01:50:34.144Z,19.22
2022-08-02T01:53:06.040Z,19.22
2022-08-02T01:55:56.964Z,19.18
2022-08-02T01:58:30.142Z,19.20
2022-08-02T02:01:02.053Z,19.21
2022-08-02T02:03:33.874Z,19.17
2022-08-02T02:06:22.541Z,19.17
2022-08-02T02:08:54.080Z,19.18
2022-08-02T02:12:09.351Z,19.13
2022-08-02T02:14:17.685Z,19.11
2022-08-02T02:16:49.801Z,19.07
2022-08-02T02:19:22.729Z,19.00
2022-08-02T02:21:54.905Z,18.99
2022-08-02T02:24:28.864Z,18.98
2022-08-02T02:27:02.458Z,18.97
2022-08-02T02:29:33.987Z,18.98
2022-08-02T02:32:06.163Z,18.94
2022-08-02T02:34:37.803Z,18.90
2022-08-02T02:37:09.395Z,18.86
2022-08-02T02:39:40.915Z,18.90
2022-08-02T02:42:13.188Z,18.88
2022-08-02T02:44:45.176Z,18.86
2022-08-02T02:47:16.995Z,18.88
2022-08-02T02:49:49.006Z,18.86
2022-08-02T02:52:20.979Z,18.86
2022-08-02T02:54:52.564Z,18.88
2022-08-02T02:57:24.090Z,18.90
2022-08-02T02:59:55.599Z,18.85
2022-08-02T03:02:27.612Z,18.83
2022-08-02T03:05:01.507Z,18.84
2022-08-02T03:07:33.493Z,18.83
2022-08-02T03:10:04.993Z,18.83
2022-08-02T03:12:37.050Z,18.87
2022-08-02T03:15:09.284Z,18.88
2022-08-02T03:17:41.142Z,18.90
2022-08-02T03:20:12.670Z,18.94
2022-08-02T03:22:44.982Z,18.93
2022-08-02T03:25:16.504Z,18.94
2022-08-02T03:27:48.463Z,18.93
2022-08-02T03:30:20.008Z,18.88
2022-08-02T03:32:52.091Z,18.81
2022-08-02T03:35:24.461Z,18.74
2022-08-02T03:37:56.846Z,18.74
2022-08-02T03:40:28.342Z,18.78
2022-08-02T03:43:00.166Z,18.79
2022-08-02T03:45:31.684Z,18.83
2022-08-02T03:48:03.335Z,18.82
2022-08-02T03:50:54.859Z,18.77
2022-08-02T03:53:26.727Z,18.76
2022-08-02T03:55:58.219Z,18.85
2022-08-02T03:58:30.020Z,18.92
2022-08-02T04:01:01.588Z,18.92
2022-08-02T04:03:33.604Z,18.93
2022-08-02T04:06:05.190Z,18.94
2022-08-02T04:08:38.734Z,18.88
2022-08-02T04:11:29.674Z,18.94
2022-08-02T04:14:01.180Z,18.97
2022-08-02T04:16:33.046Z,19.02
2022-08-02T04:19:04.640Z,18.97
2022-08-02T04:21:50.187Z,18.87
2022-08-02T04:24:24.727Z,18.85
2022-08-02T04:26:57.943Z,18.86
2022-08-02T04:29:38.444Z,18.91
2022-08-02T04:32:10.526Z,18.84
2022-08-02T04:34:47.459Z,18.91
2022-08-02T04:37:26.307Z,18.95
2022-08-02T04:39:57.804Z,18.97
2022-08-02T04:42:29.640Z,19.22
2022-08-02T04:45:03.000Z,19.33
2022-08-02T04:48:02.212Z,19.52
2022-08-02T04:50:26.361Z,19.58
2022-08-02T04:52:58.219Z,19.70
2022-08-02T04:55:30.054Z,19.59
2022-08-02T04:58:06.701Z,19.61
2022-08-02T05:00:45.264Z,19.72
2022-08-02T05:03:17.145Z,19.81
2022-08-02T05:05:48.714Z,19.83
2022-08-02T05:08:20.654Z,19.84
2022-08-02T05:10:52.239Z,19.78
2022-08-02T05:13:24.102Z,19.80
2022-08-02T05:15:55.592Z,19.93
2022-08-02T05:18:28.779Z,20.14
2022-08-02T05:21:00.284Z,20.43
2022-08-02T05:23:32.066Z,20.56
2022-08-02T05:26:04.871Z,20.58
2022-08-02T05:28:36.668Z,20.53
2022-08-02T05:31:13.407Z,20.51
2022-08-02T05:33:45.428Z,20.34
2022-08-02T05:36:16.928Z,20.31
2022-08-02T05:38:51.237Z,20.24
2022-08-02T05:41:22.730Z,20.22
2022-08-02T05:43:54.569Z,20.44
2022-08-02T05:46:26.078Z,20.43
2022-08-02T05:48:57.978Z,20.42
2022-08-02T05:51:29.595Z,20.48
2022-08-02T05:54:04.307Z,20.55
2022-08-02T05:56:36.361Z,20.80
2022-08-02T05:59:08.240Z,21.14
2022-08-02T06:01:42.972Z,21.27
2022-08-02T06:04:14.890Z,21.40
2022-08-02T06:06:46.396Z,21.40
2022-08-02T06:09:25.174Z,21.56
2022-08-02T06:12:11.503Z,21.71
2022-08-02T06:14:43.521Z,22.08
2022-08-02T06:17:20.495Z,22.20
2022-08-02T06:19:52.829Z,22.31
2022-08-02T06:22:31.969Z,22.55
2022-08-02T06:25:48.157Z,22.50
2022-08-02T06:28:04.648Z,22.16
2022-08-02T06:30:43.132Z,22.06
2022-08-02T06:33:15.128Z,22.48
2022-08-02T06:35:46.728Z,22.86
2022-08-02T06:38:19.227Z,22.72
2022-08-02T06:40:50.756Z,22.84
2022-08-02T06:43:22.606Z,22.93
2022-08-02T06:45:54.136Z,22.90
2022-08-02T06:48:26.133Z,22.75
2022-08-02T06:50:57.625Z,22.95
2022-08-02T06:53:29.449Z,23.23
2022-08-02T06:56:00.944Z,23.48
2022-08-02T06:58:32.752Z,24.03
2022-08-02T07:01:07.175Z,23.35
2022-08-02T07:03:39.097Z,23.93
2022-08-02T07:06:11.682Z,24.43
2022-08-02T07:08:54.787Z,23.67
2022-08-02T07:11:35.035Z,23.69
2022-08-02T07:14:06.935Z,24.06
2022-08-02T07:16:38.427Z,24.40
2022-08-02T07:19:10.279Z,24.40
2022-08-02T07:21:57.577Z,24.27
2022-08-02T07:24:32.717Z,24.76
2022-08-02T07:27:12.561Z,24.72
2022-08-02T07:29:46.277Z,24.20
2022-08-02T07:32:19.278Z,23.58
2022-08-02T07:34:53.095Z,23.64
2022-08-02T07:37:53.814Z,24.47
2022-08-02T07:40:19.816Z,24.87
2022-08-02T07:42:56.416Z,25.14
2022-08-02T07:45:31.153Z,25.21
2022-08-02T07:48:03.173Z,24.98
2022-08-02T07:50:34.681Z,25.50
2022-08-02T07:53:06.556Z,25.36
2022-08-02T07:55:40.437Z,25.69
2022-08-02T07:58:13.623Z,25.40
2022-08-02T08:00:45.409Z,25.77
2022-08-02T08:03:17.219Z,25.91
2022-08-02T08:05:48.768Z,26.14
2022-08-02T08:08:20.569Z,25.70
2022-08-02T08:10:52.121Z,25.47
2022-08-02T08:13:23.944Z,25.55
2022-08-02T08:15:55.498Z,25.80
2022-08-02T08:18:27.399Z,26.03
2022-08-02T08:20:58.900Z,26.30
2022-08-02T08:23:32.662Z,26.25
2022-08-02T08:26:04.172Z,26.46
2022-08-02T08:28:35.997Z,26.71
2022-08-02T08:31:07.512Z,26.37
2022-08-02T08:33:39.331Z,25.52
2022-08-02T08:36:10.834Z,25.82
2022-08-02T08:38:42.805Z,26.41
2022-08-02T08:41:14.313Z,26.45
2022-08-02T08:43:50.089Z,25.97
2022-08-02T08:46:25.119Z,25.92
2022-08-02T08:48:57.112Z,26.26
2022-08-02T08:51:28.622Z,26.56
2022-08-02T08:54:04.283Z,26.00
2022-08-02T08:56:35.845Z,25.72
2022-08-02T08:59:07.705Z,25.90
2022-08-02T09:01:50.239Z,26.39
2022-08-02T09:04:22.820Z,26.73
2022-08-02T09:06:55.582Z,27.69
2022-08-02T09:09:27.476Z,27.29
2022-08-02T09:11:58.976Z,27.51
2022-08-02T09:14:32.948Z,27.57
2022-08-02T09:17:04.532Z,28.03
2022-08-02T09:19:37.313Z,27.58
2022-08-02T09:22:09.208Z,27.54
2022-08-02T09:24:41.408Z,27.36
2022-08-02T09:27:13.044Z,27.57
2022-08-02T09:30:11.538Z,27.31
2022-08-02T09:32:36.263Z,28.18
2022-08-02T09:35:08.199Z,28.05
2022-08-02T09:37:39.694Z,28.70
2022-08-02T09:40:12.515Z,29.39
2022-08-02T09:42:44.019Z,29.02
2022-08-02T09:45:15.899Z,28.80
2022-08-02T09:47:47.413Z,28.86
2022-08-02T09:50:19.260Z,28.54
2022-08-02T09:52:50.813Z,28.82
2022-08-02T09:55:22.615Z,29.05
2022-08-02T09:57:54.171Z,28.80
2022-08-02T10:00:43.427Z,29.26
2022-08-02T10:03:21.457Z,29.24
2022-08-02T10:05:56.119Z,29.82
2022-08-02T10:08:28.981Z,29.74
2022-08-02T10:11:00.876Z,30.56
2022-08-02T10:13:32.484Z,30.70
2022-08-02T10:16:04.337Z,31.14
2022-08-02T10:18:39.296Z,30.38
2022-08-02T10:21:12.467Z,31.16
2022-08-02T10:23:43.959Z,31.26
2022-08-02T10:26:16.101Z,30.56
2022-08-02T10:28:48.255Z,29.98
2022-08-02T10:31:20.235Z,29.87
2022-08-02T10:33:53.356Z,29.23
2022-08-02T10:36:27.415Z,30.41
2022-08-02T10:38:59.293Z,30.55
2022-08-02T10:41:30.809Z,30.75
2022-08-02T10:44:04.075Z,29.36
2022-08-02T10:46:35.669Z,28.63
2022-08-02T10:49:37.418Z,28.08
2022-08-02T10:52:01.974Z,28.19
2022-08-02T10:54:33.770Z,28.40
2022-08-02T10:57:05.286Z,28.86
2022-08-02T10:59:37.154Z,29.02
2022-08-02T11:02:08.835Z,28.64
2022-08-02T11:04:40.820Z,29.32
2022-08-02T11:07:14.008Z,30.16
2022-08-02T11:09:45.968Z,30.23
2022-08-02T11:12:17.466Z,30.14
2022-08-02T11:14:50.235Z,30.40
2022-08-02T11:17:22.018Z,31.03
2022-08-02T11:19:53.881Z,30.98
2022-08-02T11:22:26.074Z,30.80
2022-08-02T11:24:58.228Z,29.90
2022-08-02T11:27:31.249Z,29.80
2022-08-02T11:30:03.100Z,30.32
2022-08-02T11:32:36.219Z,30.31
2022-08-02T11:35:08.085Z,31.09
2022-08-02T11:37:39.611Z,31.49
2022-08-02T11:40:19.323Z,32.05
2022-08-02T11:42:53.558Z,32.15
2022-08-02T11:45:29.417Z,32.12
2022-08-02T11:48:01.338Z,31.81
2022-08-02T11:50:33.308Z,32.02
2022-08-02T11:53:05.035Z,31.39
2022-08-02T11:55:36.885Z,31.18
2022-08-02T11:58:11.421Z,30.88
2022-08-02T12:00:47.280Z,29.32
2022-08-02T12:03:19.921Z,30.55
2022-08-02T12:06:05.454Z,30.95
2022-08-02T12:08:38.301Z,31.38
2022-08-02T12:11:10.145Z,31.22
2022-08-02T12:13:41.986Z,31.32
2022-08-02T12:16:32.855Z,31.33
2022-08-02T12:19:20.075Z,31.89
2022-08-02T12:21:51.562Z,32.36
2022-08-02T12:24:23.525Z,31.25
2022-08-02T12:26:55.568Z,31.01
2022-08-02T12:29:57.961Z,30.48
2022-08-02T12:32:19.059Z,30.41
2022-08-02T12:34:51.015Z,29.48
2022-08-02T12:37:22.536Z,29.88
2022-08-02T12:39:54.312Z,29.55
2022-08-02T12:42:25.867Z,28.44
2022-08-02T12:45:00.798Z,27.94
2022-08-02T12:47:36.171Z,29.78
2022-08-02T12:50:08.291Z,30.92
2022-08-02T12:52:39.805Z,31.65
2022-08-02T12:55:11.720Z,30.58
2022-08-02T12:57:43.218Z,31.45
2022-08-02T13:00:14.750Z,31.10
2022-08-02T13:02:48.150Z,30.75
2022-08-02T13:05:20.092Z,30.58
2022-08-02T13:07:51.716Z,31.54
2022-08-02T13:10:23.563Z,31.75
2022-08-02T13:12:55.058Z,32.47
2022-08-02T13:15:49.995Z,32.81
2022-08-02T13:18:19.023Z,32.36
2022-08-02T13:20:50.895Z,31.31
2022-08-02T13:23:23.263Z,31.94
2022-08-02T13:25:55.184Z,31.86
2022-08-02T13:28:27.471Z,31.44
2022-08-02T13:31:14.901Z,32.19
2022-08-02T13:33:50.942Z,31.10
2022-08-02T13:36:22.791Z,32.09
2022-08-02T13:38:54.297Z,33.25
2022-08-02T13:41:26.159Z,32.93
2022-08-02T13:44:06.165Z,31.91
2022-08-02T13:46:45.340Z,32.46
2022-08-02T13:49:19.770Z,32.15
2022-08-02T13:51:51.953Z,31.43
2022-08-02T13:54:23.935Z,31.02
2022-08-02T13:56:55.467Z,30.40
2022-08-02T13:59:56.823Z,30.66
2022-08-02T14:02:19.188Z,31.20
2022-08-02T14:04:51.049Z,31.25
2022-08-02T14:07:22.559Z,32.63
2022-08-02T14:09:54.465Z,32.80
2022-08-02T14:12:25.974Z,31.32
2022-08-02T14:14:57.504Z,31.23
2022-08-02T14:17:29.000Z,32.83
2022-08-02T14:20:00.550Z,33.47
2022-08-02T14:22:32.033Z,33.34
2022-08-02T14:25:08.996Z,32.74
2022-08-02T14:27:41.051Z,31.46
2022-08-02T14:30:13.012Z,31.56
2022-08-02T14:32:44.586Z,31.08
2022-08-02T14:35:16.437Z,30.89
2022-08-02T14:37:47.929Z,30.94
2022-08-02T14:40:30.918Z,31.02
2022-08-02T14:43:03.380Z,32.11
2022-08-02T14:45:40.991Z,32.73
2022-08-02T14:48:13.053Z,32.75
2022-08-02T14:50:44.853Z,32.93
2022-08-02T14:53:16.338Z,32.79
2022-08-02T14:55:48.252Z,31.55
2022-08-02T14:58:19.758Z,32.83
2022-08-02T15:00:51.263Z,32.53
2022-08-02T15:03:24.253Z,31.57
2022-08-02T15:05:55.898Z,31.65
2022-08-02T15:08:27.408Z,32.99
2022-08-02T15:10:59.249Z,31.97
2022-08-02T15:13:30.756Z,32.78
2022-08-02T15:16:03.649Z,33.31
2022-08-02T15:18:35.151Z,33.24
2022-08-02T15:21:36.545Z,33.40
2022-08-02T15:23:58.625Z,32.84
2022-08-02T15:26:30.582Z,32.49
2022-08-02T15:29:02.096Z,31.34
2022-08-02T15:31:33.855Z,31.67
2022-08-02T15:34:06.073Z,31.43
2022-08-02T15:36:37.594Z,30.42
2022-08-02T15:39:09.181Z,29.63
2022-08-02T15:41:41.036Z,29.50
2022-08-02T15:44:13.936Z,29.15
2022-08-02T15:46:45.788Z,29.85
2022-08-02T15:49:17.313Z,30.43
2022-08-02T15:51:49.299Z,30.55
2022-08-02T15:54:20.842Z,30.55
2022-08-02T15:56:52.658Z,30.38
2022-08-02T15:59:24.348Z,29.91
2022-08-02T16:01:56.328Z,30.39
2022-08-02T16:04:27.921Z,30.82
2022-08-02T16:07:01.509Z,31.05
2022-08-02T16:09:33.290Z,30.98
2022-08-02T16:12:05.173Z,30.94
2022-08-02T16:14:36.667Z,30.89
2022-08-02T16:17:08.586Z,30.53
2022-08-02T16:19:49.090Z,30.08
2022-08-02T16:22:21.715Z,30.54
2022-08-02T16:24:53.264Z,30.68
2022-08-02T16:27:25.100Z,30.80
2022-08-02T16:29:56.605Z,31.02
2022-08-02T16:32:28.151Z,31.13
2022-08-02T16:35:07.092Z,31.00
2022-08-02T16:37:51.829Z,31.13
2022-08-02T16:40:24.282Z,30.72
2022-08-02T16:42:56.105Z,30.74
2022-08-02T16:45:27.645Z,30.67
2022-08-02T16:48:03.684Z,30.56
2022-08-02T16:50:37.690Z,30.12
2022-08-02T16:53:11.199Z,30.04
2022-08-02T16:55:51.917Z,30.20
2022-08-02T16:58:24.960Z,30.28
2022-08-02T17:00:56.946Z,30.13
2022-08-02T17:03:55.538Z,30.06
2022-08-02T17:06:21.141Z,29.94
2022-08-02T17:08:57.927Z,29.93
2022-08-02T17:11:31.017Z,29.83
2022-08-02T17:14:02.710Z,29.69
2022-08-02T17:16:35.618Z,29.61
2022-08-02T17:19:07.787Z,29.32
2022-08-02T17:21:39.664Z,29.18
2022-08-02T17:24:11.182Z,28.99
2022-08-02T17:26:43.696Z,29.00
2022-08-02T17:29:17.764Z,28.95
2022-08-02T17:32:12.532Z,28.86
2022-08-02T17:34:56.354Z,28.66
2022-08-02T17:37:32.226Z,28.61
2022-08-02T17:40:04.499Z,28.62
2022-08-02T17:42:36.411Z,28.43
2022-08-02T17:45:16.771Z,28.44
2022-08-02T17:48:04.039Z,28.40
2022-08-02T17:50:37.278Z,28.36
2022-08-02T17:53:09.376Z,28.23
2022-08-02T17:55:42.666Z,28.07
2022-08-02T17:58:33.196Z,27.96
2022-08-02T18:01:05.472Z,27.85
2022-08-02T18:03:55.349Z,27.66
2022-08-02T18:06:27.367Z,27.61
2022-08-02T18:08:58.884Z,27.49
2022-08-02T18:11:52.495Z,27.44
2022-08-02T18:14:22.455Z,27.37
2022-08-02T18:16:56.314Z,27.23
2022-08-02T18:19:33.213Z,27.08
2022-08-02T18:22:15.742Z,26.97
2022-08-02T18:24:47.965Z,26.87
2022-08-02T18:27:21.829Z,26.78
2022-08-02T18:30:04.361Z,25.46
2022-08-02T18:33:01.154Z,26.61
2022-08-02T18:35:29.438Z,26.41
2022-08-02T18:38:03.627Z,26.26
2022-08-02T18:40:35.486Z,26.16
2022-08-02T18:43:07.832Z,26.06
2022-08-02T18:46:05.867Z,25.91
2022-08-02T18:48:31.319Z,25.78
2022-08-02T18:51:03.261Z,25.68
2022-08-02T18:53:41.477Z,25.59
2022-08-02T18:56:20.224Z,25.50
2022-08-02T18:58:57.283Z,25.44
2022-08-02T19:01:33.562Z,25.33
2022-08-02T19:04:08.634Z,25.22
2022-08-02T19:06:40.633Z,25.16
2022-08-02T19:09:13.913Z,25.08
2022-08-02T19:11:47.478Z,24.96
2022-08-02T19:14:27.846Z,24.84
2022-08-02T19:17:16.067Z,24.70
2022-08-02T19:19:52.108Z,24.60
2022-08-02T19:22:27.436Z,24.51
2022-08-02T19:25:01.779Z,24.44
2022-08-02T19:27:34.529Z,24.36
2022-08-02T19:30:07.726Z,24.34
2022-08-02T19:32:59.385Z,24.31
2022-08-02T19:35:34.603Z,24.30
2022-08-02T19:38:06.897Z,24.26
2022-08-02T19:40:38.983Z,24.20
2022-08-02T19:44:24.791Z,24.12
2022-08-02T19:46:03.407Z,23.98
2022-08-02T19:48:34.933Z,23.96
2022-08-02T19:51:07.950Z,23.98
2022-08-02T19:53:47.005Z,23.95
2022-08-02T19:56:25.105Z,23.89
2022-08-02T19:59:00.322Z,23.87
2022-08-02T20:01:38.797Z,23.82
2022-08-02T20:04:12.929Z,23.76
2022-08-02T20:06:47.662Z,23.73
2022-08-02T20:09:21.244Z,23.69
2022-08-02T20:11:54.707Z,23.64
2022-08-02T20:14:27.976Z,23.58
2022-08-02T20:16:59.926Z,23.52
2022-08-02T20:19:31.766Z,23.46
2022-08-02T20:22:07.510Z,23.41
2022-08-02T20:24:42.104Z,23.34
2022-08-02T20:27:17.032Z,23.29
2022-08-02T20:29:55.462Z,23.22
2022-08-02T20:32:27.290Z,23.19
2022-08-02T20:34:59.971Z,23.14
2022-08-02T20:37:59.343Z,23.08
2022-08-02T20:40:24.167Z,23.05
2022-08-02T20:42:56.056Z,23.00
2022-08-02T20:45:28.438Z,22.94
2022-08-02T20:48:05.520Z,22.92
2022-08-02T20:50:49.250Z,22.91
2022-08-02T20:53:24.151Z,22.88
2022-08-02T20:55:57.789Z,22.83
2022-08-02T20:58:31.098Z,22.80
2022-08-02T21:01:02.736Z,22.74
2022-08-02T21:03:39.452Z,22.69
2022-08-02T21:06:15.050Z,22.65
2022-08-02T21:08:48.873Z,22.61
2022-08-02T21:11:20.693Z,22.52
2022-08-02T21:14:06.518Z,22.44
2022-08-02T21:16:41.083Z,22.31
2022-08-02T21:19:12.752Z,22.19
2022-08-02T21:21:45.255Z,22.17
2022-08-02T21:24:17.586Z,22.13
2022-08-02T21:26:56.484Z,22.10
2022-08-02T21:29:28.178Z,22.07
2022-08-02T21:32:05.249Z,22.02
2022-08-02T21:34:36.816Z,21.97
2022-08-02T21:37:10.017Z,21.92
2022-08-02T21:39:41.840Z,21.90
2022-08-02T21:42:16.307Z,21.84
2022-08-02T21:44:54.275Z,21.82
2022-08-02T21:47:26.256Z,21.74
2022-08-02T21:50:09.466Z,21.68
2022-08-02T21:52:52.449Z,21.67
2022-08-02T21:56:00.270Z,21.66
2022-08-02T21:58:15.871Z,21.65
2022-08-02T22:00:51.611Z,21.57
2022-08-02T22:03:23.827Z,21.55
2022-08-02T22:05:55.358Z,21.53
2022-08-02T22:08:27.242Z,21.50
2022-08-02T22:11:03.210Z,21.44
2022-08-02T22:13:38.611Z,21.38
2022-08-02T22:16:27.447Z,21.30
2022-08-02T22:18:59.675Z,21.33
2022-08-02T22:21:33.653Z,21.31
2022-08-02T22:24:30.286Z,21.28
2022-08-02T22:27:02.570Z,21.26
2022-08-02T22:29:34.075Z,21.22
2022-08-02T22:32:06.842Z,21.21
2022-08-02T22:34:52.199Z,21.19
2022-08-02T22:38:14.804Z,21.07
2022-08-02T22:40:15.838Z,20.89
2022-08-02T22:42:49.048Z,20.79
2022-08-02T22:45:20.829Z,20.77
2022-08-02T22:47:52.656Z,20.81
2022-08-02T22:50:25.945Z,20.81
2022-08-02T22:52:57.902Z,20.83
2022-08-02T22:55:32.588Z,20.84
2022-08-02T22:58:04.528Z,20.82
2022-08-02T23:00:36.796Z,20.83
2022-08-02T23:03:08.907Z,20.81
2022-08-02T23:05:40.545Z,20.80
2022-08-02T23:08:12.612Z,20.67
2022-08-02T23:10:44.167Z,20.63
2022-08-02T23:13:16.016Z,20.58
2022-08-02T23:16:06.196Z,20.59
2022-08-02T23:18:56.659Z,20.57
2022-08-02T23:22:00.837Z,20.58
2022-08-02T23:24:24.718Z,20.55
2022-08-02T23:26:56.221Z,20.50
2022-08-02T23:29:27.757Z,20.32
2022-08-02T23:31:59.293Z,20.34
2022-08-02T23:34:32.810Z,20.38
2022-08-02T23:37:04.652Z,20.42
2022-08-02T23:39:36.139Z,20.44
2022-08-02T23:42:08.113Z,20.42
2022-08-02T23:44:39.599Z,20.34
2022-08-02T23:47:11.537Z,20.20
2022-08-02T23:49:43.117Z,20.24
2022-08-02T23:52:15.310Z,20.30
2022-08-02T23:54:47.009Z,20.34
2022-08-02T23:57:20.026Z,20.29
2022-08-02T23:59:52.988Z,20.22
